sensor_id;sensor_type;location;lat;lon;timestamp;P1;durP1;ratioP1;P2;durP2;ratioP2
15307;SDS011;7755;52.208;6.964;2023-04-19T00:03:06;12.13;;;10.93;;
15307;SDS011;7755;52.208;6.964;2023-04-19T00:07:10;13.63;;;10.43;;
15307;SDS011;7755;52.208;6.964;2023-04-19T00:11:13;10.50;;;9.43;;
15307;SDS011;7755;52.208;6.964;2023-04-19T00:15:17;10.23;;;9.23;;
15307;SDS011;7755;52.208;6.964;2023-04-19T00:19:20;11.87;;;10.63;;
15307;SDS011;7755;52.208;6.964;2023-04-19T00:23:23;11.20;;;9.83;;
15307;SDS011;7755;52.208;6.964;2023-04-19T00:27:26;9.83;;;8.93;;
15307;SDS011;7755;52.208;6.964;2023-04-19T00:31:30;10.63;;;9.60;;
15307;SDS011;7755;52.208;6.964;2023-04-19T00:35:33;9.97;;;9.07;;
15307;SDS011;7755;52.208;6.964;2023-04-19T00:39:36;10.60;;;9.70;;
15307;SDS011;7755;52.208;6.964;2023-04-19T00:43:39;11.40;;;9.17;;
15307;SDS011;7755;52.208;6.964;2023-04-19T00:47:43;11.63;;;10.43;;
15307;SDS011;7755;52.208;6.964;2023-04-19T00:51:46;10.43;;;9.37;;
15307;SDS011;7755;52.208;6.964;2023-04-19T00:55:49;10.33;;;8.97;;
15307;SDS011;7755;52.208;6.964;2023-04-19T00:59:52;10.60;;;9.50;;
15307;SDS011;7755;52.208;6.964;2023-04-19T01:03:57;10.20;;;9.10;;
15307;SDS011;7755;52.208;6.964;2023-04-19T01:08:02;11.27;;;10.17;;
15307;SDS011;7755;52.208;6.964;2023-04-19T01:12:05;9.70;;;8.70;;
15307;SDS011;7755;52.208;6.964;2023-04-19T01:16:08;11.17;;;9.07;;
15307;SDS011;7755;52.208;6.964;2023-04-19T01:20:13;10.07;;;8.63;;
15307;SDS011;7755;52.208;6.964;2023-04-19T01:24:17;10.33;;;9.30;;
15307;SDS011;7755;52.208;6.964;2023-04-19T01:28:23;8.60;;;7.73;;
15307;SDS011;7755;52.208;6.964;2023-04-19T01:32:26;9.60;;;8.70;;
15307;SDS011;7755;52.208;6.964;2023-04-19T01:36:29;10.20;;;8.50;;
15307;SDS011;7755;52.208;6.964;2023-04-19T01:40:34;9.93;;;9.03;;
15307;SDS011;7755;52.208;6.964;2023-04-19T01:44:38;9.13;;;8.23;;
15307;SDS011;7755;52.208;6.964;2023-04-19T01:48:40;10.83;;;8.00;;
15307;SDS011;7755;52.208;6.964;2023-04-19T01:52:43;8.60;;;7.70;;
15307;SDS011;7755;52.208;6.964;2023-04-19T01:56:47;9.27;;;8.10;;
15307;SDS011;7755;52.208;6.964;2023-04-19T02:00:50;9.47;;;8.30;;
15307;SDS011;7755;52.208;6.964;2023-04-19T02:04:53;9.07;;;8.17;;
15307;SDS011;7755;52.208;6.964;2023-04-19T02:08:56;9.40;;;8.50;;
15307;SDS011;7755;52.208;6.964;2023-04-19T02:13:00;8.90;;;7.97;;
15307;SDS011;7755;52.208;6.964;2023-04-19T02:17:03;9.00;;;8.10;;
15307;SDS011;7755;52.208;6.964;2023-04-19T02:21:06;9.63;;;8.67;;
15307;SDS011;7755;52.208;6.964;2023-04-19T02:25:10;8.67;;;7.87;;
15307;SDS011;7755;52.208;6.964;2023-04-19T02:29:14;8.67;;;7.83;;
15307;SDS011;7755;52.208;6.964;2023-04-19T02:33:17;9.13;;;8.33;;
15307;SDS011;7755;52.208;6.964;2023-04-19T02:37:20;8.50;;;7.70;;
15307;SDS011;7755;52.208;6.964;2023-04-19T02:41:22;9.67;;;8.40;;
15307;SDS011;7755;52.208;6.964;2023-04-19T02:45:27;9.17;;;8.20;;
15307;SDS011;7755;52.208;6.964;2023-04-19T02:49:30;8.20;;;7.40;;
15307;SDS011;7755;52.208;6.964;2023-04-19T02:53:37;10.23;;;7.77;;
15307;SDS011;7755;52.208;6.964;2023-04-19T02:57:40;8.43;;;7.07;;
15307;SDS011;7755;52.208;6.964;2023-04-19T03:01:45;8.27;;;7.47;;
15307;SDS011;7755;52.208;6.964;2023-04-19T03:05:48;8.47;;;7.67;;
15307;SDS011;7755;52.208;6.964;2023-04-19T03:09:51;9.13;;;8.23;;
15307;SDS011;7755;52.208;6.964;2023-04-19T03:13:54;8.33;;;7.53;;
15307;SDS011;7755;52.208;6.964;2023-04-19T03:17:58;8.23;;;7.03;;
15307;SDS011;7755;52.208;6.964;2023-04-19T03:22:02;9.60;;;7.73;;
15307;SDS011;7755;52.208;6.964;2023-04-19T03:26:06;7.40;;;6.80;;
15307;SDS011;7755;52.208;6.964;2023-04-19T03:30:17;8.17;;;7.33;;
15307;SDS011;7755;52.208;6.964;2023-04-19T03:34:21;8.43;;;7.40;;
15307;SDS011;7755;52.208;6.964;2023-04-19T03:38:24;8.20;;;7.40;;
15307;SDS011;7755;52.208;6.964;2023-04-19T03:42:28;10.87;;;7.80;;
15307;SDS011;7755;52.208;6.964;2023-04-19T03:46:40;7.90;;;7.10;;
15307;SDS011;7755;52.208;6.964;2023-04-19T03:50:44;7.40;;;6.70;;
15307;SDS011;7755;52.208;6.964;2023-04-19T03:54:51;9.87;;;7.00;;
15307;SDS011;7755;52.208;6.964;2023-04-19T03:59:19;7.40;;;6.70;;
15307;SDS011;7755;52.208;6.964;2023-04-19T04:03:23;7.70;;;7.03;;
15307;SDS011;7755;52.208;6.964;2023-04-19T04:07:28;7.67;;;6.87;;
15307;SDS011;7755;52.208;6.964;2023-04-19T04:11:31;7.13;;;6.47;;
15307;SDS011;7755;52.208;6.964;2023-04-19T04:15:34;7.70;;;7.00;;
15307;SDS011;7755;52.208;6.964;2023-04-19T04:19:38;6.90;;;6.20;;
15307;SDS011;7755;52.208;6.964;2023-04-19T04:23:43;7.53;;;6.73;;
15307;SDS011;7755;52.208;6.964;2023-04-19T04:27:51;6.83;;;6.20;;
15307;SDS011;7755;52.208;6.964;2023-04-19T04:31:57;6.77;;;6.10;;
15307;SDS011;7755;52.208;6.964;2023-04-19T04:36:07;6.37;;;5.77;;
15307;SDS011;7755;52.208;6.964;2023-04-19T04:40:15;6.60;;;5.60;;
15307;SDS011;7755;52.208;6.964;2023-04-19T04:44:18;7.00;;;5.77;;
15307;SDS011;7755;52.208;6.964;2023-04-19T04:48:23;6.60;;;6.00;;
15307;SDS011;7755;52.208;6.964;2023-04-19T04:52:26;6.03;;;5.53;;
15307;SDS011;7755;52.208;6.964;2023-04-19T04:56:39;6.93;;;6.23;;
15307;SDS011;7755;52.208;6.964;2023-04-19T05:00:42;6.70;;;6.10;;
15307;SDS011;7755;52.208;6.964;2023-04-19T05:04:46;5.93;;;5.33;;
15307;SDS011;7755;52.208;6.964;2023-04-19T05:08:49;6.73;;;6.00;;
15307;SDS011;7755;52.208;6.964;2023-04-19T05:13:04;6.57;;;5.80;;
15307;SDS011;7755;52.208;6.964;2023-04-19T05:17:07;7.17;;;6.13;;
15307;SDS011;7755;52.208;6.964;2023-04-19T05:21:10;6.63;;;5.30;;
15307;SDS011;7755;52.208;6.964;2023-04-19T05:25:15;5.13;;;4.40;;
15307;SDS011;7755;52.208;6.964;2023-04-19T05:29:19;7.53;;;4.90;;
15307;SDS011;7755;52.208;6.964;2023-04-19T05:33:25;4.93;;;4.53;;
15307;SDS011;7755;52.208;6.964;2023-04-19T05:37:30;4.67;;;4.27;;
15307;SDS011;7755;52.208;6.964;2023-04-19T05:41:33;4.57;;;4.17;;
15307;SDS011;7755;52.208;6.964;2023-04-19T05:45:37;7.27;;;4.93;;
15307;SDS011;7755;52.208;6.964;2023-04-19T05:49:40;4.80;;;4.40;;
15307;SDS011;7755;52.208;6.964;2023-04-19T05:53:54;5.07;;;4.30;;
15307;SDS011;7755;52.208;6.964;2023-04-19T05:57:59;5.20;;;4.70;;
15307;SDS011;7755;52.208;6.964;2023-04-19T06:02:04;5.17;;;4.77;;
15307;SDS011;7755;52.208;6.964;2023-04-19T06:06:08;4.60;;;4.23;;
15307;SDS011;7755;52.208;6.964;2023-04-19T06:10:12;5.10;;;4.60;;
15307;SDS011;7755;52.208;6.964;2023-04-19T06:14:15;5.43;;;4.70;;
15307;SDS011;7755;52.208;6.964;2023-04-19T06:18:20;4.73;;;4.20;;
15307;SDS011;7755;52.208;6.964;2023-04-19T06:22:23;4.90;;;4.50;;
15307;SDS011;7755;52.208;6.964;2023-04-19T06:26:27;4.57;;;4.17;;
15307;SDS011;7755;52.208;6.964;2023-04-19T06:30:29;4.87;;;4.20;;
15307;SDS011;7755;52.208;6.964;2023-04-19T06:34:34;4.20;;;3.83;;
15307;SDS011;7755;52.208;6.964;2023-04-19T06:38:36;4.00;;;3.60;;
15307;SDS011;7755;52.208;6.964;2023-04-19T06:42:40;4.13;;;3.73;;
15307;SDS011;7755;52.208;6.964;2023-04-19T06:46:42;4.30;;;3.90;;
15307;SDS011;7755;52.208;6.964;2023-04-19T06:50:47;4.70;;;4.30;;
15307;SDS011;7755;52.208;6.964;2023-04-19T06:54:50;3.97;;;3.63;;
15307;SDS011;7755;52.208;6.964;2023-04-19T06:58:53;4.50;;;4.10;;
15307;SDS011;7755;52.208;6.964;2023-04-19T07:02:56;4.30;;;3.90;;
15307;SDS011;7755;52.208;6.964;2023-04-19T07:07:01;4.27;;;3.97;;
15307;SDS011;7755;52.208;6.964;2023-04-19T07:11:04;4.33;;;3.93;;
15307;SDS011;7755;52.208;6.964;2023-04-19T07:15:07;6.10;;;4.63;;
15307;SDS011;7755;52.208;6.964;2023-04-19T07:19:11;5.13;;;4.63;;
15307;SDS011;7755;52.208;6.964;2023-04-19T07:23:16;4.23;;;3.70;;
15307;SDS011;7755;52.208;6.964;2023-04-19T07:27:19;3.80;;;3.50;;
15307;SDS011;7755;52.208;6.964;2023-04-19T07:31:22;3.60;;;3.30;;
15307;SDS011;7755;52.208;6.964;2023-04-19T07:35:26;3.50;;;3.20;;
15307;SDS011;7755;52.208;6.964;2023-04-19T07:39:30;3.97;;;3.57;;
15307;SDS011;7755;52.208;6.964;2023-04-19T07:43:32;3.10;;;2.80;;
15307;SDS011;7755;52.208;6.964;2023-04-19T07:47:35;3.10;;;2.90;;
15307;SDS011;7755;52.208;6.964;2023-04-19T07:51:38;3.20;;;2.90;;
15307;SDS011;7755;52.208;6.964;2023-04-19T07:55:42;3.57;;;3.30;;
15307;SDS011;7755;52.208;6.964;2023-04-19T07:59:45;3.87;;;3.17;;
15307;SDS011;7755;52.208;6.964;2023-04-19T08:03:48;2.97;;;2.67;;
15307;SDS011;7755;52.208;6.964;2023-04-19T08:07:51;2.97;;;2.60;;
15307;SDS011;7755;52.208;6.964;2023-04-19T08:11:55;5.23;;;2.90;;
15307;SDS011;7755;52.208;6.964;2023-04-19T08:15:58;3.00;;;2.80;;
15307;SDS011;7755;52.208;6.964;2023-04-19T08:20:04;2.97;;;2.67;;
15307;SDS011;7755;52.208;6.964;2023-04-19T08:24:08;2.80;;;2.60;;
15307;SDS011;7755;52.208;6.964;2023-04-19T08:28:12;2.80;;;2.60;;
15307;SDS011;7755;52.208;6.964;2023-04-19T08:32:15;2.60;;;2.40;;
15307;SDS011;7755;52.208;6.964;2023-04-19T08:36:18;3.80;;;2.73;;
15307;SDS011;7755;52.208;6.964;2023-04-19T08:40:33;2.80;;;2.60;;
15307;SDS011;7755;52.208;6.964;2023-04-19T08:44:38;2.73;;;2.53;;
15307;SDS011;7755;52.208;6.964;2023-04-19T08:49:01;2.77;;;2.50;;
15307;SDS011;7755;52.208;6.964;2023-04-19T08:53:06;3.53;;;3.23;;
15307;SDS011;7755;52.208;6.964;2023-04-19T08:57:13;3.20;;;3.00;;
15307;SDS011;7755;52.208;6.964;2023-04-19T09:01:17;3.13;;;2.93;;
15307;SDS011;7755;52.208;6.964;2023-04-19T09:05:34;4.63;;;3.07;;
15307;SDS011;7755;52.208;6.964;2023-04-19T09:09:37;3.00;;;2.80;;
15307;SDS011;7755;52.208;6.964;2023-04-19T09:14:06;3.57;;;3.27;;
15307;SDS011;7755;52.208;6.964;2023-04-19T09:18:11;3.60;;;3.30;;
15307;SDS011;7755;52.208;6.964;2023-04-19T09:22:14;3.40;;;3.00;;
15307;SDS011;7755;52.208;6.964;2023-04-19T09:26:17;4.30;;;3.90;;
15307;SDS011;7755;52.208;6.964;2023-04-19T09:30:24;3.30;;;2.83;;
15307;SDS011;7755;52.208;6.964;2023-04-19T09:34:35;4.53;;;3.00;;
15307;SDS011;7755;52.208;6.964;2023-04-19T09:38:52;3.23;;;3.00;;
15307;SDS011;7755;52.208;6.964;2023-04-19T09:42:55;3.40;;;3.17;;
15307;SDS011;7755;52.208;6.964;2023-04-19T09:47:01;5.03;;;3.30;;
15307;SDS011;7755;52.208;6.964;2023-04-19T09:51:05;4.70;;;3.27;;
15307;SDS011;7755;52.208;6.964;2023-04-19T09:55:14;3.73;;;3.20;;
15307;SDS011;7755;52.208;6.964;2023-04-19T09:59:28;2.97;;;2.77;;
15307;SDS011;7755;52.208;6.964;2023-04-19T10:03:31;3.40;;;3.07;;
15307;SDS011;7755;52.208;6.964;2023-04-19T10:07:36;2.80;;;2.70;;
15307;SDS011;7755;52.208;6.964;2023-04-19T10:11:39;3.60;;;3.00;;
15307;SDS011;7755;52.208;6.964;2023-04-19T10:15:54;3.30;;;3.00;;
15307;SDS011;7755;52.208;6.964;2023-04-19T10:20:12;4.07;;;3.37;;
15307;SDS011;7755;52.208;6.964;2023-04-19T10:24:23;3.00;;;2.80;;
15307;SDS011;7755;52.208;6.964;2023-04-19T10:28:27;4.07;;;3.43;;
15307;SDS011;7755;52.208;6.964;2023-04-19T10:32:36;3.47;;;3.17;;
15307;SDS011;7755;52.208;6.964;2023-04-19T10:36:40;3.20;;;3.00;;
15307;SDS011;7755;52.208;6.964;2023-04-19T10:40:57;3.67;;;3.37;;
15307;SDS011;7755;52.208;6.964;2023-04-19T10:49:43;5.23;;;3.33;;
15307;SDS011;7755;52.208;6.964;2023-04-19T10:53:50;3.33;;;3.13;;
15307;SDS011;7755;52.208;6.964;2023-04-19T10:58:02;4.27;;;3.30;;
15307;SDS011;7755;52.208;6.964;2023-04-19T11:06:29;4.27;;;3.73;;
15307;SDS011;7755;52.208;6.964;2023-04-19T11:10:32;4.33;;;3.30;;
15307;SDS011;7755;52.208;6.964;2023-04-19T11:14:38;4.00;;;3.70;;
15307;SDS011;7755;52.208;6.964;2023-04-19T11:18:42;4.00;;;3.67;;
15307;SDS011;7755;52.208;6.964;2023-04-19T11:22:45;3.63;;;3.33;;
15307;SDS011;7755;52.208;6.964;2023-04-19T11:26:48;5.00;;;4.07;;
15307;SDS011;7755;52.208;6.964;2023-04-19T11:30:56;4.73;;;4.20;;
15307;SDS011;7755;52.208;6.964;2023-04-19T11:35:03;4.03;;;3.70;;
15307;SDS011;7755;52.208;6.964;2023-04-19T11:39:07;3.67;;;3.33;;
15307;SDS011;7755;52.208;6.964;2023-04-19T11:43:10;4.23;;;3.43;;
15307;SDS011;7755;52.208;6.964;2023-04-19T11:47:14;5.03;;;3.73;;
15307;SDS011;7755;52.208;6.964;2023-04-19T11:51:17;4.87;;;3.77;;
15307;SDS011;7755;52.208;6.964;2023-04-19T11:55:21;7.20;;;3.20;;
15307;SDS011;7755;52.208;6.964;2023-04-19T11:59:24;3.83;;;3.53;;
15307;SDS011;7755;52.208;6.964;2023-04-19T12:03:28;4.20;;;3.87;;
15307;SDS011;7755;52.208;6.964;2023-04-19T12:07:31;3.87;;;3.47;;
15307;SDS011;7755;52.208;6.964;2023-04-19T12:11:41;4.77;;;3.70;;
15307;SDS011;7755;52.208;6.964;2023-04-19T12:15:45;4.07;;;3.77;;
15307;SDS011;7755;52.208;6.964;2023-04-19T12:19:50;5.27;;;4.00;;
15307;SDS011;7755;52.208;6.964;2023-04-19T12:23:54;4.30;;;3.73;;
15307;SDS011;7755;52.208;6.964;2023-04-19T12:27:57;4.00;;;3.70;;
15307;SDS011;7755;52.208;6.964;2023-04-19T12:32:01;3.80;;;3.30;;
15307;SDS011;7755;52.208;6.964;2023-04-19T12:36:06;3.70;;;3.40;;
15307;SDS011;7755;52.208;6.964;2023-04-19T12:40:09;4.47;;;3.97;;
15307;SDS011;7755;52.208;6.964;2023-04-19T12:44:14;5.10;;;4.10;;
15307;SDS011;7755;52.208;6.964;2023-04-19T12:48:17;4.17;;;3.77;;
15307;SDS011;7755;52.208;6.964;2023-04-19T12:52:21;5.60;;;4.17;;
15307;SDS011;7755;52.208;6.964;2023-04-19T12:56:24;4.57;;;4.17;;
15307;SDS011;7755;52.208;6.964;2023-04-19T13:00:27;4.80;;;3.80;;
15307;SDS011;7755;52.208;6.964;2023-04-19T13:04:30;4.10;;;3.80;;
15307;SDS011;7755;52.208;6.964;2023-04-19T13:08:34;4.40;;;4.00;;
15307;SDS011;7755;52.208;6.964;2023-04-19T13:12:47;4.37;;;3.97;;
15307;SDS011;7755;52.208;6.964;2023-04-19T13:16:50;4.37;;;3.97;;
15307;SDS011;7755;52.208;6.964;2023-04-19T13:20:53;4.33;;;3.93;;
15307;SDS011;7755;52.208;6.964;2023-04-19T13:24:57;8.97;;;3.90;;
15307;SDS011;7755;52.208;6.964;2023-04-19T13:29:00;3.67;;;3.37;;
15307;SDS011;7755;52.208;6.964;2023-04-19T13:33:02;4.20;;;3.80;;
15307;SDS011;7755;52.208;6.964;2023-04-19T13:37:09;3.90;;;3.60;;
15307;SDS011;7755;52.208;6.964;2023-04-19T13:41:13;4.50;;;3.73;;
15307;SDS011;7755;52.208;6.964;2023-04-19T13:45:16;4.50;;;4.10;;
15307;SDS011;7755;52.208;6.964;2023-04-19T13:49:19;4.07;;;3.50;;
15307;SDS011;7755;52.208;6.964;2023-04-19T13:53:22;4.47;;;3.70;;
15307;SDS011;7755;52.208;6.964;2023-04-19T13:57:26;4.27;;;3.87;;
15307;SDS011;7755;52.208;6.964;2023-04-19T14:01:30;4.70;;;4.30;;
15307;SDS011;7755;52.208;6.964;2023-04-19T14:05:32;4.67;;;4.17;;
15307;SDS011;7755;52.208;6.964;2023-04-19T14:09:36;3.97;;;3.63;;
15307;SDS011;7755;52.208;6.964;2023-04-19T14:13:40;4.30;;;3.90;;
15307;SDS011;7755;52.208;6.964;2023-04-19T14:17:43;6.10;;;4.17;;
15307;SDS011;7755;52.208;6.964;2023-04-19T14:21:45;5.23;;;4.70;;
15307;SDS011;7755;52.208;6.964;2023-04-19T14:25:48;4.17;;;3.77;;
15307;SDS011;7755;52.208;6.964;2023-04-19T14:29:52;3.73;;;3.30;;
15307;SDS011;7755;52.208;6.964;2023-04-19T14:33:55;4.20;;;3.60;;
15307;SDS011;7755;52.208;6.964;2023-04-19T14:37:59;3.77;;;3.47;;
15307;SDS011;7755;52.208;6.964;2023-04-19T14:42:03;4.23;;;3.67;;
15307;SDS011;7755;52.208;6.964;2023-04-19T14:46:07;3.50;;;3.20;;
15307;SDS011;7755;52.208;6.964;2023-04-19T14:50:10;3.43;;;3.20;;
15307;SDS011;7755;52.208;6.964;2023-04-19T14:54:13;3.17;;;2.97;;
15307;SDS011;7755;52.208;6.964;2023-04-19T14:58:16;3.93;;;3.53;;
15307;SDS011;7755;52.208;6.964;2023-04-19T15:02:28;3.50;;;3.17;;
15307;SDS011;7755;52.208;6.964;2023-04-19T15:11:29;3.00;;;2.80;;
15307;SDS011;7755;52.208;6.964;2023-04-19T15:32:58;3.70;;;2.60;;
15307;SDS011;7755;52.208;6.964;2023-04-19T15:37:02;2.77;;;2.57;;
15307;SDS011;7755;52.208;6.964;2023-04-19T15:41:06;3.03;;;2.80;;
15307;SDS011;7755;52.208;6.964;2023-04-19T15:45:11;3.20;;;2.90;;
15307;SDS011;7755;52.208;6.964;2023-04-19T15:49:14;5.03;;;3.20;;
15307;SDS011;7755;52.208;6.964;2023-04-19T15:53:19;3.63;;;3.10;;
15307;SDS011;7755;52.208;6.964;2023-04-19T15:57:23;3.90;;;3.60;;
15307;SDS011;7755;52.208;6.964;2023-04-19T16:01:26;3.93;;;2.90;;
15307;SDS011;7755;52.208;6.964;2023-04-19T16:05:29;3.87;;;3.27;;
15307;SDS011;7755;52.208;6.964;2023-04-19T16:09:36;3.17;;;2.87;;
15307;SDS011;7755;52.208;6.964;2023-04-19T16:13:40;4.07;;;3.00;;
15307;SDS011;7755;52.208;6.964;2023-04-19T16:17:43;4.63;;;3.17;;
15307;SDS011;7755;52.208;6.964;2023-04-19T16:21:48;3.57;;;3.17;;
15307;SDS011;7755;52.208;6.964;2023-04-19T16:30:22;3.50;;;2.90;;
15307;SDS011;7755;52.208;6.964;2023-04-19T16:34:27;6.93;;;3.40;;
15307;SDS011;7755;52.208;6.964;2023-04-19T16:38:30;3.63;;;3.33;;
15307;SDS011;7755;52.208;6.964;2023-04-19T16:42:35;4.90;;;3.43;;
15307;SDS011;7755;52.208;6.964;2023-04-19T16:46:39;4.77;;;3.67;;
15307;SDS011;7755;52.208;6.964;2023-04-19T16:50:42;3.67;;;3.37;;
15307;SDS011;7755;52.208;6.964;2023-04-19T16:54:45;4.50;;;3.33;;
15307;SDS011;7755;52.208;6.964;2023-04-19T16:58:49;4.67;;;3.50;;
15307;SDS011;7755;52.208;6.964;2023-04-19T17:02:52;3.97;;;3.60;;
15307;SDS011;7755;52.208;6.964;2023-04-19T17:06:55;4.27;;;3.87;;
15307;SDS011;7755;52.208;6.964;2023-04-19T17:10:58;5.80;;;4.00;;
15307;SDS011;7755;52.208;6.964;2023-04-19T17:15:03;6.63;;;4.37;;
15307;SDS011;7755;52.208;6.964;2023-04-19T17:19:08;4.80;;;4.33;;
15307;SDS011;7755;52.208;6.964;2023-04-19T17:23:26;6.17;;;5.57;;
15307;SDS011;7755;52.208;6.964;2023-04-19T17:32:00;4.60;;;4.20;;
15307;SDS011;7755;52.208;6.964;2023-04-19T17:36:17;4.07;;;3.77;;
15307;SDS011;7755;52.208;6.964;2023-04-19T17:40:36;4.43;;;4.07;;
15307;SDS011;7755;52.208;6.964;2023-04-19T17:44:54;4.63;;;4.23;;
15307;SDS011;7755;52.208;6.964;2023-04-19T17:49:17;3.90;;;3.60;;
15307;SDS011;7755;52.208;6.964;2023-04-19T17:53:36;4.80;;;4.20;;
15307;SDS011;7755;52.208;6.964;2023-04-19T17:57:52;4.50;;;3.87;;
15307;SDS011;7755;52.208;6.964;2023-04-19T18:01:55;7.23;;;4.50;;
15307;SDS011;7755;52.208;6.964;2023-04-19T18:06:00;4.87;;;3.93;;
15307;SDS011;7755;52.208;6.964;2023-04-19T18:18:51;5.27;;;4.53;;
15307;SDS011;7755;52.208;6.964;2023-04-19T18:23:13;4.13;;;3.83;;
15307;SDS011;7755;52.208;6.964;2023-04-19T18:27:35;5.13;;;4.17;;
15307;SDS011;7755;52.208;6.964;2023-04-19T18:36:01;4.97;;;4.53;;
15307;SDS011;7755;52.208;6.964;2023-04-19T18:40:08;4.70;;;4.30;;
15307;SDS011;7755;52.208;6.964;2023-04-19T18:44:12;4.63;;;4.17;;
15307;SDS011;7755;52.208;6.964;2023-04-19T18:48:40;4.73;;;4.33;;
15307;SDS011;7755;52.208;6.964;2023-04-19T18:52:43;4.70;;;4.30;;
15307;SDS011;7755;52.208;6.964;2023-04-19T18:56:48;5.90;;;4.30;;
15307;SDS011;7755;52.208;6.964;2023-04-19T19:01:14;5.17;;;4.67;;
15307;SDS011;7755;52.208;6.964;2023-04-19T19:05:32;5.97;;;4.20;;
15307;SDS011;7755;52.208;6.964;2023-04-19T19:14:11;6.70;;;4.50;;
15307;SDS011;7755;52.208;6.964;2023-04-19T19:18:15;4.53;;;4.00;;
15307;SDS011;7755;52.208;6.964;2023-04-19T19:22:32;4.07;;;3.77;;
15307;SDS011;7755;52.208;6.964;2023-04-19T19:26:45;4.27;;;3.80;;
15307;SDS011;7755;52.208;6.964;2023-04-19T19:31:01;4.30;;;3.90;;
15307;SDS011;7755;52.208;6.964;2023-04-19T19:35:22;5.87;;;4.30;;
15307;SDS011;7755;52.208;6.964;2023-04-19T19:39:32;3.83;;;3.40;;
15307;SDS011;7755;52.208;6.964;2023-04-19T19:43:35;4.27;;;3.50;;
15307;SDS011;7755;52.208;6.964;2023-04-19T19:47:53;3.90;;;3.50;;
15307;SDS011;7755;52.208;6.964;2023-04-19T19:52:00;6.77;;;4.00;;
15307;SDS011;7755;52.208;6.964;2023-04-19T19:56:04;4.23;;;3.10;;
15307;SDS011;7755;52.208;6.964;2023-04-19T20:00:23;7.10;;;4.30;;
15307;SDS011;7755;52.208;6.964;2023-04-19T20:04:36;3.70;;;3.40;;
15307;SDS011;7755;52.208;6.964;2023-04-19T20:08:40;4.80;;;3.87;;
15307;SDS011;7755;52.208;6.964;2023-04-19T20:16:57;3.83;;;3.53;;
15307;SDS011;7755;52.208;6.964;2023-04-19T20:21:13;4.43;;;3.27;;
15307;SDS011;7755;52.208;6.964;2023-04-19T20:29:57;6.37;;;4.47;;
15307;SDS011;7755;52.208;6.964;2023-04-19T20:34:01;5.57;;;3.73;;
15307;SDS011;7755;52.208;6.964;2023-04-19T20:38:06;4.40;;;3.63;;
15307;SDS011;7755;52.208;6.964;2023-04-19T20:42:10;4.27;;;3.43;;
15307;SDS011;7755;52.208;6.964;2023-04-19T20:46:23;4.30;;;3.23;;
15307;SDS011;7755;52.208;6.964;2023-04-19T20:50:26;5.63;;;3.80;;
15307;SDS011;7755;52.208;6.964;2023-04-19T20:54:31;3.67;;;3.37;;
15307;SDS011;7755;52.208;6.964;2023-04-19T20:58:34;6.60;;;3.37;;
15307;SDS011;7755;52.208;6.964;2023-04-19T21:02:44;3.63;;;3.33;;
15307;SDS011;7755;52.208;6.964;2023-04-19T21:06:47;4.93;;;3.73;;
15307;SDS011;7755;52.208;6.964;2023-04-19T21:10:51;5.73;;;3.60;;
15307;SDS011;7755;52.208;6.964;2023-04-19T21:19:22;4.17;;;3.50;;
15307;SDS011;7755;52.208;6.964;2023-04-19T21:23:26;3.27;;;2.97;;
15307;SDS011;7755;52.208;6.964;2023-04-19T21:27:30;3.20;;;2.90;;
15307;SDS011;7755;52.208;6.964;2023-04-19T21:31:34;3.33;;;2.90;;
15307;SDS011;7755;52.208;6.964;2023-04-19T21:35:37;4.33;;;3.37;;
15307;SDS011;7755;52.208;6.964;2023-04-19T21:39:40;3.67;;;3.10;;
15307;SDS011;7755;52.208;6.964;2023-04-19T21:43:44;4.90;;;3.00;;
15307;SDS011;7755;52.208;6.964;2023-04-19T21:47:48;5.60;;;3.50;;
15307;SDS011;7755;52.208;6.964;2023-04-19T21:51:51;3.50;;;3.20;;
15307;SDS011;7755;52.208;6.964;2023-04-19T21:55:55;3.10;;;2.80;;
15307;SDS011;7755;52.208;6.964;2023-04-19T22:00:01;3.30;;;3.00;;
15307;SDS011;7755;52.208;6.964;2023-04-19T22:17:06;4.40;;;3.73;;
15307;SDS011;7755;52.208;6.964;2023-04-19T22:21:10;5.07;;;3.30;;
15307;SDS011;7755;52.208;6.964;2023-04-19T22:25:13;4.37;;;3.87;;
15307;SDS011;7755;52.208;6.964;2023-04-19T22:29:17;4.27;;;3.50;;
15307;SDS011;7755;52.208;6.964;2023-04-19T22:33:22;4.73;;;3.30;;
15307;SDS011;7755;52.208;6.964;2023-04-19T22:37:24;4.17;;;3.70;;
15307;SDS011;7755;52.208;6.964;2023-04-19T22:41:28;4.30;;;3.50;;
15307;SDS011;7755;52.208;6.964;2023-04-19T22:45:30;5.50;;;3.83;;
15307;SDS011;7755;52.208;6.964;2023-04-19T22:49:34;5.23;;;3.63;;
15307;SDS011;7755;52.208;6.964;2023-04-19T22:53:37;3.80;;;3.50;;
15307;SDS011;7755;52.208;6.964;2023-04-19T22:57:40;4.87;;;3.40;;
15307;SDS011;7755;52.208;6.964;2023-04-19T23:01:53;4.60;;;3.77;;
15307;SDS011;7755;52.208;6.964;2023-04-19T23:10:30;3.57;;;3.37;;
15307;SDS011;7755;52.208;6.964;2023-04-19T23:14:38;6.17;;;3.90;;
15307;SDS011;7755;52.208;6.964;2023-04-19T23:18:40;4.43;;;3.77;;
15307;SDS011;7755;52.208;6.964;2023-04-19T23:22:46;5.07;;;3.67;;
15307;SDS011;7755;52.208;6.964;2023-04-19T23:26:49;3.53;;;3.03;;
15307;SDS011;7755;52.208;6.964;2023-04-19T23:30:52;3.83;;;3.53;;
15307;SDS011;7755;52.208;6.964;2023-04-19T23:34:55;4.00;;;3.70;;
15307;SDS011;7755;52.208;6.964;2023-04-19T23:38:59;3.77;;;3.30;;
15307;SDS011;7755;52.208;6.964;2023-04-19T23:43:02;4.47;;;3.13;;
15307;SDS011;7755;52.208;6.964;2023-04-19T23:47:06;4.13;;;3.13;;
15307;SDS011;7755;52.208;6.964;2023-04-19T23:51:11;6.20;;;3.23;;
15307;SDS011;7755;52.208;6.964;2023-04-19T23:55:15;3.80;;;3.50;;
